新東京国際空港の過去48時間の天気

新東京国際空港 (Tokyo/New Tokyo Intl)

現在時刻: 2/23 21:49 JST (2/23 12:49 UTC) 以下の時間は現地時間です。

過去48時間のMETAR気象情報
時間 風向 風速(m/s) 視程 気温(℃) 湿度(%) 気圧(hPa) 天気現象
23 21:30 南南西 1 10km以上 0 100 1022
23 21:00 南西 1 10km以上 0 100 1021
23 20:30 不定 1 10km以上 1 93 1021
23 20:00 不定 1 10km以上 1 86 1021
23 19:30 北東 2 10km以上 5 75 1020
23 19:00 北東 3 10km以上 6 76 1020
23 18:30 東北東 3 10km以上 6 76 1020
23 18:00 北東 3 10km以上 6 76 1020
23 17:30 北東 3 10km以上 7 70 1019
23 17:00 北北東 2 10km以上 7 70 1019
23 16:30 東北東 3 10km以上 7 70 1018
23 16:00 3 10km以上 8 61 1018
23 15:30 北北東 3 10km以上 7 66 1018
23 15:00 4 10km以上 8 66 1018
23 14:30 5 10km以上 7 70 1017
23 14:00 6 10km以上 7 70 1017
23 13:30 5 10km以上 7 76 1017
23 13:00 5 10km以上 7 76 1017
23 12:30 5 10km以上 7 76 1018
23 12:00 5 10km以上 6 81 1018
23 11:30 5 8,000m 6 81 1018
23 11:00 北北西 6 10km以上 5 81 1019
23 10:30 北西 5 8,000m 5 87 1019
23 10:00 北北西 6 8,000m 4 87 1019
23 09:38 北西 4 8,000m 3 93 1019
23 09:00 北北西 5 8,000m 3 93 1019 弱い雨
23 08:30 北北西 4 5,000m 3 93 1019 もや
23 08:00 4 4,500m 3 100 1019 弱い雨 もや
23 07:30 北北西 4 3,500m 3 93 1019 弱い雨 もや
23 07:00 北北西 4 3,000m 3 93 1019 弱い雨 もや
23 06:30 北北西 4 3,500m 3 93 1019 もや
23 06:10 5 4,500m 3 93 1019 もや
23 05:30 5 6,000m 3 93 1019
23 05:00 6 5,000m 2 100 1019 もや
23 04:30 北北西 6 5,000m 2 100 1019 もや
23 04:00 5 4,000m 2 100 1019 もや
23 03:30 6 4,000m 2 100 1019 もや
23 03:00 6 4,000m 2 100 1019 もや
23 02:30 6 4,000m 2 100 1019 もや
23 02:00 北北西 5 3,000m 2 100 1019 もや
23 01:30 北北西 5 2,500m 2 100 1019 もや
23 01:00 北北西 5 2,000m 2 100 1019 弱い雨 もや
23 00:30 北北西 5 2,500m 2 100 1020 弱い雨 もや
23 00:00 北西 4 3,000m 3 93 1020 弱い雨 もや
22 23:30 北西 4 3,000m 3 93 1020 もや
22 23:25 北北西 4 4,000m 3 93 1020 もや
22 23:00 北西 3 6,000m 3 93 1020 弱い雨 もや
22 22:30 北西 2 10km以上 3 100 1020 弱い雨
22 22:00 2 10km以上 4 87 1020
22 21:30 北北東 2 10km以上 4 93 1020
22 21:00 北北東 3 10km以上 3 93 1020
22 20:30 2 10km以上 3 93 1020
22 20:00 北北東 3 10km以上 3 93 1020
22 19:30 北東 4 10km以上 4 87 1021 弱い雨
22 19:00 北東 2 10km以上 4 87 1021 弱い雨
22 18:30 北北東 2 10km以上 3 93 1020 弱い雨
22 18:00 北東 3 7,000m 3 93 1020 弱い雨
22 17:50 北北東 3 7,000m 3 93 1020 弱い雨
22 17:30 3 5,000m 3 93 1020 弱い雨 もや
22 17:16 4 4,500m 3 93 1020 弱い雨 もや
22 17:00 4 4,500m 3 93 1020 弱い雨 もや
22 16:30 4 5,000m 3 93 1020 弱い雨 もや
22 16:00 6 7,000m 2 100 1020 弱い雨
22 15:30 5 7,000m 2 93 1020 弱い雨
22 15:00 5 6,000m 2 93 1020 弱い雨
22 14:30 6 6,000m 2 93 1020 弱い雨
22 09:38 北北東 6 3,000m 2 93 1021 弱い雪 もや
22 09:30 北北東 6 3,500m 2 93 1021 弱い雪 もや
22 09:20 北北東 5 4,500m 2 93 1021 弱い雪 弱い雨 もや
22 09:00 北北東 5 6,000m 2 93 1021 弱い雪 弱い雨 もや
22 08:30 北北東 5 6,000m 2 93 1021 弱い雨 弱い雪
22 08:00 北北東 5 6,000m 2 93 1021 弱い雨 弱い雪 もや
22 07:30 北北東 5 5,000m 2 93 1021 弱い雨 弱い雪 もや
22 07:17 北北東 5 5,000m 2 93 1021 弱い雨 弱い雪 もや
22 07:00 5 4,500m 2 93 1021 弱い雨 弱い雪 もや
22 06:30 北北東 4 4,500m 2 93 1020 弱い雪 弱い雨 もや
22 06:20 北北東 4 4,000m 2 93 1020 弱い雪 弱い雨 もや
22 06:00 北北東 3 6,000m 2 93 1020 弱い雪 弱い雨
22 05:30 北東 4 5,000m 1 100 1020 弱い雪 弱い雨 もや
22 05:00 北東 3 4,500m 1 93 1019 弱い雪 もや
22 04:30 北北東 2 3,200m 1 93 1019 弱い雪 もや
22 04:00 2 4,000m 1 93 1019 弱い雪 もや
22 03:30 東北東 3 7,000m 1 93 1019 弱い雪
22 03:00 3 9,000m 2 87 1018 弱い雪 弱い雨
22 02:30 東北東 4 10km以上 2 87 1018 弱い雨 弱い雪
22 02:00 東北東 4 8,000m 3 81 1018 弱い雪
22 01:30 東北東 4 9,000m 3 81 1018 弱い雪 弱い雨
22 01:00 東北東 6 10km以上 4 70 1017 弱い雨
21 23:30 北東 3 10km以上 5 56 1017
21 22:30 北東 4 10km以上 5 56 1016
21 22:00 4 10km以上 5 56 1017 弱い雨
RJAA 231230Z 20002KT 9999 FEW020 00/M00 Q1022 NOSIG RMK 1CU020 A3018
RJAA 231200Z 22001KT 9999 FEW020 00/M00 Q1021 NOSIG RMK 1CU020 A3016
RJAA 231130Z VRB01KT 9999 FEW020 01/M00 Q1021 NOSIG RMK 1CU020 A3016
RJAA 231100Z VRB02KT 9999 FEW020 01/M01 Q1021 NOSIG RMK 1CU020 A3015
RJAA 231030Z 05003KT 010V090 9999 FEW020 05/01 Q1020 NOSIG RMK 1CU020 A3015
RJAA 231000Z 05005KT 360V080 9999 FEW020 06/02 Q1020 NOSIG RMK 1CU020 A3014
RJAA 230930Z 06005KT 020V080 9999 FEW020 06/02 Q1020 BECMG 05005KT
RJAA 230900Z 05005KT 360V080 9999 FEW020 06/02 Q1020 NOSIG RMK 1CU020 A3012
RJAA 230830Z 04006KT 360V100 9999 FEW020 07/02 Q1019 NOSIG RMK 1CU020 A3011 MOD TURB OBS AT 0801Z 25NM E NARITA BTN 13000FT AND 12000FT IN DES B738 SJO1052
RJAA 230800Z 02003KT 320V090 9999 FEW020 07/02 Q1019 NOSIG RMK 1CU020 A3010
RJAA 230730Z 06006KT 9999 FEW020 07/02 Q1018 BECMG 05006KT RMK 1CU020 A3008
RJAA 230700Z 01005KT 340V070 9999 FEW020 08/01 Q1018 NOSIG RMK 2CU020 A3008
RJAA 230630Z 02006KT 350V050 9999 FEW020 07/01 Q1018 NOSIG RMK 2CU020 A3007
RJAA 230600Z 35007KT 320V030 9999 FEW015 SCT020 08/02 Q1018 NOSIG RMK 1CU015 4CU020 A3006
RJAA 230530Z 36009KT 330V030 9999 SCT015 BKN035 07/02 Q1017 NOSIG RMK 3CU015 5SC035 A3005
RJAA 230500Z 36012KT 9999 FEW012 SCT016 BKN020 07/02 Q1017 NOSIG RMK 1CU012 3SC016 7SC020 A3005
RJAA 230430Z 36010KT 9999 FEW012 BKN016 BKN020 07/03 Q1017 NOSIG RMK 1CU012 5SC016 7SC020 A3006
RJAA 230400Z 35009KT 9999 FEW010 SCT012 BKN016 07/03 Q1017 NOSIG RMK 1ST010 3SC012 7SC016 A3006
RJAA 230330Z 36010KT 330V030 9999 FEW010 SCT012 BKN016 07/03 Q1018 NOSIG RMK 1ST010 3SC012 7SC016 A3006 MOD TURB OBS AT 0303Z FM SWAMP TO COMET BTN FL170 AND FL150 IN DES A320 VNL906
RJAA 230300Z 36010KT 9999 FEW008 SCT010 BKN012 06/03 Q1018 BECMG TL0400 FEW010 BKN020 RMK 1ST008 3ST010 7SC012 A3007
RJAA 230230Z 35010KT 8000 FEW008 BKN012 06/03 Q1018 BECMG TL0330 FEW010 SCT015
RJAA 230200Z 34012KT 9999 FEW008 BKN011 05/02 Q1019 BECMG TL0330 FEW010 SCT015 BKN040
RJAA 230130Z 32009KT 8000 FEW008 SCT010 BKN012 05/03 Q1019 BECMG FEW007 BKN015
RJAA 230100Z 34011KT 8000 FEW005 SCT008 BKN012 04/02 Q1019 BECMG FEW007 BKN015 RMK 1ST005 3ST008 7SC012 A3010
RJAA 230038Z 32007KT 8000 FEW004 SCT008 BKN012 03/02 Q1019 RMK 1ST004 3ST008 7SC012 A3010
RJAA 230000Z 34009KT 8000 -RA FEW004 SCT006 BKN015 03/02 Q1019 NOSIG RMK 1ST004 3ST006 7SC015 A3010
RJAA 222330Z 33008KT 5000 BR FEW004 BKN006 BKN015 03/02 Q1019 TEMPO FEW005 BKN012
RJAA 222300Z 36008KT 4500 -RA BR FEW003 BKN005 BKN015 03/03 Q1019 NOSIG RMK 1ST003 6ST005 7SC015 A3011
RJAA 222230Z 33008KT 3500 -RA BR FEW003 BKN005 BKN015 03/02 Q1019 NOSIG RMK 1ST003 6ST005 7SC015 A3011
RJAA 222200Z 34007KT 3000 -RA BR FEW002 BKN004 BKN015 03/02 Q1019 NOSIG RMK 1ST002 6ST004 7SC015 A3010
RJAA 222130Z 34008KT 3500 BR FEW003 BKN004 03/02 Q1019 TEMPO 3000 -RA BR
RJAA 222110Z 36009KT 4500 BR FEW003 BKN004 BKN015 03/02 Q1019 RMK 1ST003 6ST004 7SC015 A3010
RJAA 222030Z 36009KT 6000 FEW004 SCT010 BKN018 03/02 Q1019 TEMPO 4000 BR FEW003 BKN005
RJAA 222000Z 36011KT 5000 BR FEW003 BKN005 BKN010 02/02 Q1019 TEMPO 4000 BR RMK 1ST003 5ST005 7ST010 A3010
RJAA 221930Z 34011KT 5000 BR FEW003 BKN004 02/02 Q1019 TEMPO 4000 BR
RJAA 221900Z 35010KT 4000 BR FEW003 BKN004 02/02 Q1019 NOSIG RMK 2ST003 7ST004 A3009
RJAA 221830Z 36011KT 4000 BR FEW003 BKN004 02/02 Q1019 NOSIG RMK 2ST003 7ST004 A3010
RJAA 221800Z 36011KT 4000 BR FEW003 BKN004 02/02 Q1019 NOSIG RMK 2ST003 7ST004 A3010
RJAA 221730Z 35011KT 4000 BR FEW002 BKN004 02/02 Q1019 NOSIG RMK 1ST002 7ST004 A3010
RJAA 221700Z 34010KT 3000 BR FEW002 BKN003 02/02 Q1019 NOSIG RMK 2ST002 7ST003 A3011
RJAA 221630Z 33009KT 2500 BR SCT001 BKN003 02/02 Q1019 NOSIG RMK 3ST001 7ST003 A3011
RJAA 221600Z 33009KT 2000 -RA BR SCT001 BKN003 02/02 Q1019 NOSIG RMK 3ST001 7ST003 A3012
RJAA 221530Z 33009KT 2500 -RA BR SCT001 BKN003 02/02 Q1020 NOSIG RMK 3ST001 7ST003 A3013
RJAA 221500Z 32008KT 3000 -RA BR FEW001 BKN003 03/02 Q1020 NOSIG RMK 2ST001 7ST003 A3013
RJAA 221430Z 32007KT 3000 BR FEW001 BKN003 BKN012 03/02 Q1020 NOSIG RMK 2ST001 5ST003 6SC012 A3013
RJAA 221425Z 33008KT 4000 BR FEW001 BKN003 BKN012 03/02 Q1020 RMK 2ST001 5ST003 6SC012 A3013
RJAA 221400Z 31005KT 6000 -RA BR FEW001 SCT012 BKN020 03/02 Q1020 TEMPO FEW003 BKN005 RMK 2ST001 4SC012 7SC020 A3013 BR N
RJAA 221330Z 32004KT 9999 -RA FEW015 BKN025 03/03 Q1020 NOSIG RMK 2SC015 7SC025 A3013
RJAA 221300Z 36003KT 340V060 9999 FEW015 BKN025 04/02 Q1020 NOSIG RMK 2SC015 7SC025 A3014 MOD TURB OBS AT 1230Z OVER BINKS BTN 10000FT AND 9000FT IN DES A320 JJP628
RJAA 221230Z 03004KT 340V090 9999 FEW015 BKN050 04/03 Q1020 NOSIG RMK 1SC015 6SC050 A3014
RJAA 221200Z 02006KT 9999 FEW013 SCT020 BKN160 03/02 Q1020 TEMPO FEW008 BKN012
RJAA 221130Z 01004KT 9999 FEW013 SCT060 BKN160 03/02 Q1020 TEMPO FEW008 BKN012
RJAA 221100Z 03005KT 360V070 9999 FEW010 BKN015 BKN170 03/02 Q1020 NOSIG RMK 1ST010 5SC015 7AC170 A3014
RJAA 221030Z 04007KT 9999 -RA FEW010 BKN015 BKN025 04/02 Q1021 NOSIG RMK 1ST010 5SC015 6SC025 A3016
RJAA 221000Z 04004KT 360V090 9999 -RA FEW010 SCT020 BKN045 04/02 Q1021 NOSIG RMK 1ST010 4SC020 7SC045 A3016
RJAA 220930Z 02004KT 340V060 9999 -RA FEW005 SCT015 BKN025 03/02 Q1020 NOSIG RMK 1ST005 4SC015 6SC025 A3014
RJAA 220900Z 04005KT 010V090 7000 -RA FEW003 BKN015 BKN040 03/02 Q1020 TEMPO 4500 -RA BR FEW003 BKN012
RJAA 220850Z 03005KT 360V080 7000 -RA FEW002 SCT012 BKN020 03/02 Q1020 RMK 1ST002 3SC012 6SC020 A3013
RJAA 220830Z 01005KT 5000 -RA BR FEW002 SCT004 BKN012 03/02 Q1020 TEMPO 4000 -RA BR FEW002 BKN004
RJAA 220816Z 01007KT 4500 -RA BR FEW002 SCT004 BKN015 03/02 Q1020 RMK 1ST002 4ST004 7SC015 A3014
RJAA 220800Z 36007KT 4500 -RA BR FEW003 BKN004 BKN012 03/02 Q1020 NOSIG RMK 1ST003 6ST004 7SC012 A3013
RJAA 220730Z 01007KT 5000 -RA BR FEW003 BKN004 BKN020 03/02 Q1020 TEMPO 4000 -RASN BR
RJAA 220700Z 36011KT 7000 -RA FEW003 BKN005 02/02 Q1020 TEMPO 4000 -RASN BR
RJAA 220630Z 01010KT 7000 -RA FEW003 BKN005 02/01 Q1020 TEMPO 4000 -RASN BR
RJAA 220600Z 01010KT 6000 -RA FEW003 BKN005 02/01 Q1020 TEMPO 4000 -RASN BR
RJAA 220530Z 01011KT 6000 -RA FEW003 BKN005 02/01 Q1020 TEMPO 4000 -RASN BR
RJAA 220038Z 02012KT 3000 -SN BR FEW004 BKN006 BKN008 02/01 Q1021 RMK 1ST004 5ST006 7ST008 A3017
RJAA 220030Z 02012KT 3500 -SN BR FEW004 BKN006 BKN010 02/01 Q1021 TEMPO FEW003 BKN005 RMK 1ST004 5ST006 7ST010 A3017
RJAA 220020Z 02010KT 4500 -SNRA BR FEW004 BKN006 BKN010 02/01 Q1021 RMK 1ST004 5ST006 7ST010 A3017
RJAA 220000Z 02010KT 6000 -SNRA BR FEW003 BKN005 BKN008 02/01 Q1021 TEMPO 4000 -RASN BR
RJAA 212330Z 02010KT 6000 -RASN FEW003 BKN005 BKN008 02/01 Q1021 TEMPO 4000 -RASN BR
RJAA 212300Z 03009KT 6000 -RASN BR FEW003 BKN005 BKN009 02/01 Q1021 TEMPO 4000 -RASN BR RMK 1ST003 5ST005 7ST009 A3016 BR NE-SE
RJAA 212230Z 02010KT 5000 -RASN BR FEW003 BKN005 BKN008 02/01 Q1021 TEMPO 4000 -RASN BR BECMG FEW005 BKN008
RJAA 212217Z 02009KT 5000 -RASN BR FEW002 BKN005 BKN008 02/01 Q1021 RMK 1ST002 6ST005 7ST008 A3016
RJAA 212200Z 01009KT 4500 -RASN BR FEW002 BKN005 BKN008 02/01 Q1021 BECMG FEW005 BKN008
RJAA 212130Z 02008KT 4500 -SNRA BR FEW001 BKN005 BKN008 02/01 Q1020 NOSIG RMK 1ST001 5ST005 7ST008 A3014
RJAA 212120Z 02008KT 4000 -SNRA BR FEW001 BKN005 BKN008 02/01 Q1020 RMK 1ST001 5ST005 7ST008 A3014
RJAA 212100Z 03006KT 6000 -SNRA FEW002 BKN005 BKN007 02/01 Q1020 TEMPO 4000 -SNRA
RJAA 212030Z 04008KT 5000 -SNRA BR FEW002 BKN004 BKN008 01/01 Q1020 TEMPO 4000 -SNRA
RJAA 212000Z 05005KT 4500 -SN BR FEW002 BKN004 BKN008 01/00 Q1019 TEMPO 3000 -SN RMK 1ST002 5ST004 7ST008 A3011
RJAA 211930Z 02004KT 3200 -SN BR FEW004 BKN008 BKN012 01/00 Q1019 TEMPO 3000 -SN
RJAA 211900Z 01004KT 4000 -SN BR FEW005 BKN012 BKN018 01/00 Q1019 TEMPO FEW005 BKN008 RMK 1ST005 5SC012 7SC018 A3010
RJAA 211830Z 06005KT 7000 -SN FEW005 BKN012 BKN020 01/00 Q1019 BECMG 04007KT TEMPO 4000 -SNRA FEW005 BKN008
RJAA 211800Z 08005KT 9000 -SNRA FEW008 BKN013 02/00 Q1018 BECMG 05007KT TEMPO FEW005 BKN008
RJAA 211730Z 07007KT 9999 -RASN FEW013 SCT020 BKN045 02/00 Q1018 BECMG 05008KT TEMPO FEW010 BKN012
RJAA 211700Z 06007KT 8000 -SN FEW015 BKN045 03/M00 Q1018 BECMG 05008KT
RJAA 211630Z 07008KT 9000 -SNRA FEW030 BKN045 03/M00 Q1018 BECMG 05008KT
RJAA 211600Z 06012KT 9999 -RA FEW030 BKN040 04/M01 Q1017 BECMG 05009KT
RJAA 211430Z 05005KT 9999 FEW030 BKN040 05/M03 Q1017 NOSIG RMK 1CU030 7SC040 A3004
RJAA 211330Z 05008KT 9999 FEW040 BKN080 05/M03 Q1016 NOSIG RMK 1SC040 6AC080 A3003
RJAA 211300Z 08007KT 9999 -RA FEW040 BKN045 BKN080 05/M03 Q1017 NOSIG RMK 1SC040 6SC045 7AC080 A3003